sensor_id;sensor_type;location;lat;lon;timestamp;pressure;altitude;pressure_sealevel;temperature;humidity
42385;BME280;28042;43.986;22.860;2022-07-05T00:01:43;101021.13;;;23.19;92.18
42385;BME280;28042;43.986;22.860;2022-07-05T00:04:09;101014.38;;;22.95;95.49
42385;BME280;28042;43.986;22.860;2022-07-05T00:06:34;101017.69;;;22.87;96.70
42385;BME280;28042;43.986;22.860;2022-07-05T00:08:59;101025.44;;;22.84;97.19
42385;BME280;28042;43.986;22.860;2022-07-05T00:11:25;101024.78;;;22.67;98.35
42385;BME280;28042;43.986;22.860;2022-07-05T00:13:50;101014.75;;;22.61;99.04
42385;BME280;28042;43.986;22.860;2022-07-05T00:16:15;101011.41;;;22.59;98.65
42385;BME280;28042;43.986;22.860;2022-07-05T00:18:41;101011.94;;;22.56;98.44
42385;BME280;28042;43.986;22.860;2022-07-05T00:21:06;101020.28;;;22.56;98.70
42385;BME280;28042;43.986;22.860;2022-07-05T00:23:32;101019.44;;;22.55;98.14
42385;BME280;28042;43.986;22.860;2022-07-05T00:25:57;101018.03;;;22.53;97.35
42385;BME280;28042;43.986;22.860;2022-07-05T00:28:22;101010.25;;;22.55;97.17
42385;BME280;28042;43.986;22.860;2022-07-05T00:30:48;101018.59;;;22.55;97.33
42385;BME280;28042;43.986;22.860;2022-07-05T00:33:13;101011.41;;;22.59;97.67
42385;BME280;28042;43.986;22.860;2022-07-05T00:35:38;101010.53;;;22.58;97.11
42385;BME280;28042;43.986;22.860;2022-07-05T00:38:04;101004.69;;;22.55;97.52
42385;BME280;28042;43.986;22.860;2022-07-05T00:40:29;101004.41;;;22.51;98.01
42385;BME280;28042;43.986;22.860;2022-07-05T00:42:54;101001.03;;;22.49;97.69
42385;BME280;28042;43.986;22.860;2022-07-05T00:45:20;100994.91;;;22.42;98.07
42385;BME280;28042;43.986;22.860;2022-07-05T00:47:46;100989.63;;;22.46;98.67
42385;BME280;28042;43.986;22.860;2022-07-05T00:50:11;100994.03;;;22.37;98.55
42385;BME280;28042;43.986;22.860;2022-07-05T00:52:37;100999.53;;;22.26;99.25
42385;BME280;28042;43.986;22.860;2022-07-05T00:55:02;100997.28;;;22.23;100.00
42385;BME280;28042;43.986;22.860;2022-07-05T00:57:27;100980.59;;;22.23;100.00
42385;BME280;28042;43.986;22.860;2022-07-05T00:59:53;100992.28;;;22.20;100.00
42385;BME280;28042;43.986;22.860;2022-07-05T01:02:18;100978.94;;;22.22;100.00
42385;BME280;28042;43.986;22.860;2022-07-05T01:04:48;100977.25;;;22.21;99.94
42385;BME280;28042;43.986;22.860;2022-07-05T01:07:14;100966.09;;;22.11;100.00
42385;BME280;28042;43.986;22.860;2022-07-05T01:09:40;100972.69;;;22.05;100.00
42385;BME280;28042;43.986;22.860;2022-07-05T01:12:05;100968.72;;;21.96;100.00
42385;BME280;28042;43.986;22.860;2022-07-05T01:14:31;100972.59;;;21.90;100.00
42385;BME280;28042;43.986;22.860;2022-07-05T01:16:57;100964.22;;;21.85;100.00
42385;BME280;28042;43.986;22.860;2022-07-05T01:19:22;100959.75;;;21.84;100.00
42385;BME280;28042;43.986;22.860;2022-07-05T01:21:48;100961.66;;;21.78;100.00
42385;BME280;28042;43.986;22.860;2022-07-05T01:24:14;100973.59;;;21.79;100.00
42385;BME280;28042;43.986;22.860;2022-07-05T01:26:41;100969.69;;;21.75;100.00
42385;BME280;28042;43.986;22.860;2022-07-05T01:29:07;100974.09;;;21.70;100.00
42385;BME280;28042;43.986;22.860;2022-07-05T01:31:32;100974.91;;;21.66;100.00
42385;BME280;28042;43.986;22.860;2022-07-05T01:33:58;100980.44;;;21.66;100.00
42385;BME280;28042;43.986;22.860;2022-07-05T01:36:23;100984.53;;;21.58;100.00
42385;BME280;28042;43.986;22.860;2022-07-05T01:38:49;100982.81;;;21.52;100.00
42385;BME280;28042;43.986;22.860;2022-07-05T01:41:15;100990.63;;;21.55;100.00
42385;BME280;28042;43.986;22.860;2022-07-05T01:43:40;101001.13;;;21.53;100.00
42385;BME280;28042;43.986;22.860;2022-07-05T01:46:05;100991.22;;;21.62;100.00
42385;BME280;28042;43.986;22.860;2022-07-05T01:48:33;100985.16;;;21.65;100.00
42385;BME280;28042;43.986;22.860;2022-07-05T01:51:01;100988.50;;;21.67;100.00
42385;BME280;28042;43.986;22.860;2022-07-05T01:53:29;100988.03;;;21.76;100.00
42385;BME280;28042;43.986;22.860;2022-07-05T01:55:55;100995.19;;;21.71;100.00
42385;BME280;28042;43.986;22.860;2022-07-05T01:58:21;100995.72;;;21.68;100.00
42385;BME280;28042;43.986;22.860;2022-07-05T02:00:47;101008.50;;;21.69;100.00
42385;BME280;28042;43.986;22.860;2022-07-05T02:03:14;100999.00;;;21.60;100.00
42385;BME280;28042;43.986;22.860;2022-07-05T02:05:40;101011.75;;;21.61;100.00
42385;BME280;28042;43.986;22.860;2022-07-05T02:08:05;101003.41;;;21.56;100.00
42385;BME280;28042;43.986;22.860;2022-07-05T02:10:31;101007.59;;;21.59;100.00
42385;BME280;28042;43.986;22.860;2022-07-05T02:12:56;101008.38;;;21.54;100.00
42385;BME280;28042;43.986;22.860;2022-07-05T02:15:21;101007.84;;;21.57;100.00
42385;BME280;28042;43.986;22.860;2022-07-05T02:17:47;101008.97;;;21.56;100.00
42385;BME280;28042;43.986;22.860;2022-07-05T02:20:12;101015.66;;;21.60;100.00
42385;BME280;28042;43.986;22.860;2022-07-05T02:22:37;101018.75;;;21.64;100.00
42385;BME280;28042;43.986;22.860;2022-07-05T02:25:03;101013.78;;;21.66;100.00
42385;BME280;28042;43.986;22.860;2022-07-05T02:27:28;101021.25;;;21.65;100.00
42385;BME280;28042;43.986;22.860;2022-07-05T02:29:53;101028.16;;;21.63;100.00
42385;BME280;28042;43.986;22.860;2022-07-05T02:32:19;101018.97;;;21.57;100.00
42385;BME280;28042;43.986;22.860;2022-07-05T02:34:44;101018.41;;;21.55;100.00
42385;BME280;28042;43.986;22.860;2022-07-05T02:37:09;101020.91;;;21.57;100.00
42385;BME280;28042;43.986;22.860;2022-07-05T02:39:35;101020.69;;;21.63;100.00
42385;BME280;28042;43.986;22.860;2022-07-05T02:42:00;101018.78;;;21.69;100.00
42385;BME280;28042;43.986;22.860;2022-07-05T02:44:25;101017.75;;;21.75;100.00
42385;BME280;28042;43.986;22.860;2022-07-05T02:46:51;101025.25;;;21.80;100.00
42385;BME280;28042;43.986;22.860;2022-07-05T02:49:16;101023.59;;;21.79;100.00
42385;BME280;28042;43.986;22.860;2022-07-05T02:51:41;101020.88;;;21.84;100.00
42385;BME280;28042;43.986;22.860;2022-07-05T02:54:06;101024.22;;;21.86;100.00
42385;BME280;28042;43.986;22.860;2022-07-05T02:56:32;101024.00;;;21.92;100.00
42385;BME280;28042;43.986;22.860;2022-07-05T02:58:57;101026.78;;;21.97;100.00
42385;BME280;28042;43.986;22.860;2022-07-05T03:01:22;101025.38;;;21.90;100.00
42385;BME280;28042;43.986;22.860;2022-07-05T03:03:48;101024.53;;;21.89;100.00
42385;BME280;28042;43.986;22.860;2022-07-05T03:06:13;101022.59;;;21.90;100.00
42385;BME280;28042;43.986;22.860;2022-07-05T03:08:40;101010.88;;;21.88;100.00
42385;BME280;28042;43.986;22.860;2022-07-05T03:11:05;101010.66;;;21.94;100.00
42385;BME280;28042;43.986;22.860;2022-07-05T03:13:30;101009.34;;;22.02;100.00
42385;BME280;28042;43.986;22.860;2022-07-05T03:15:56;101005.53;;;22.08;100.00
42385;BME280;28042;43.986;22.860;2022-07-05T03:18:21;101010.00;;;22.14;100.00
42385;BME280;28042;43.986;22.860;2022-07-05T03:20:46;101017.00;;;22.22;99.14
42385;BME280;28042;43.986;22.860;2022-07-05T03:23:11;101026.50;;;22.31;98.92
42385;BME280;28042;43.986;22.860;2022-07-05T03:25:37;101024.69;;;22.47;98.05
42385;BME280;28042;43.986;22.860;2022-07-05T03:28:02;101025.28;;;22.54;96.85
42385;BME280;28042;43.986;22.860;2022-07-05T03:30:28;101015.81;;;22.55;96.24
42385;BME280;28042;43.986;22.860;2022-07-05T03:32:55;101019.22;;;22.62;96.55
42385;BME280;28042;43.986;22.860;2022-07-05T03:35:20;101027.34;;;22.79;95.14
42385;BME280;28042;43.986;22.860;2022-07-05T03:37:46;101025.28;;;23.06;94.24
42385;BME280;28042;43.986;22.860;2022-07-05T03:40:11;101031.50;;;23.49;91.86
42385;BME280;28042;43.986;22.860;2022-07-05T03:42:37;101037.44;;;23.83;89.18
42385;BME280;28042;43.986;22.860;2022-07-05T03:45:02;101039.94;;;24.10;86.07
42385;BME280;28042;43.986;22.860;2022-07-05T03:47:28;101029.63;;;24.41;83.48
42385;BME280;28042;43.986;22.860;2022-07-05T03:49:53;101031.16;;;24.78;81.58
42385;BME280;28042;43.986;22.860;2022-07-05T03:52:19;101031.84;;;25.19;79.92
42385;BME280;28042;43.986;22.860;2022-07-05T03:54:44;101038.69;;;25.47;77.22
42385;BME280;28042;43.986;22.860;2022-07-05T03:57:10;101038.97;;;25.90;75.40
42385;BME280;28042;43.986;22.860;2022-07-05T03:59:36;101039.00;;;26.14;73.49
42385;BME280;28042;43.986;22.860;2022-07-05T04:02:01;101045.47;;;26.43;71.55
42385;BME280;28042;43.986;22.860;2022-07-05T04:04:26;101037.84;;;26.49;69.95
42385;BME280;28042;43.986;22.860;2022-07-05T04:06:52;101041.16;;;26.22;69.80
42385;BME280;28042;43.986;22.860;2022-07-05T04:09:17;101034.81;;;26.16;69.80
42385;BME280;28042;43.986;22.860;2022-07-05T04:11:42;101043.03;;;26.03;70.33
42385;BME280;28042;43.986;22.860;2022-07-05T04:14:07;101038.25;;;26.08;69.60
42385;BME280;28042;43.986;22.860;2022-07-05T04:16:34;101030.31;;;25.86;70.69
42385;BME280;28042;43.986;22.860;2022-07-05T04:18:59;101032.56;;;25.84;70.93
42385;BME280;28042;43.986;22.860;2022-07-05T04:21:24;101026.03;;;25.94;70.71
42385;BME280;28042;43.986;22.860;2022-07-05T04:23:50;101029.44;;;25.91;70.14
42385;BME280;28042;43.986;22.860;2022-07-05T04:26:15;101025.84;;;26.14;69.63
42385;BME280;28042;43.986;22.860;2022-07-05T04:28:40;101023.94;;;26.44;68.56
42385;BME280;28042;43.986;22.860;2022-07-05T04:31:06;101030.91;;;26.70;67.65
42385;BME280;28042;43.986;22.860;2022-07-05T04:33:31;101030.25;;;26.55;68.04
42385;BME280;28042;43.986;22.860;2022-07-05T04:35:56;101028.34;;;26.74;67.59
42385;BME280;28042;43.986;22.860;2022-07-05T04:38:22;101029.16;;;27.22;65.70
42385;BME280;28042;43.986;22.860;2022-07-05T04:40:47;101031.66;;;27.00;66.74
42385;BME280;28042;43.986;22.860;2022-07-05T04:43:12;101032.88;;;26.94;66.96
42385;BME280;28042;43.986;22.860;2022-07-05T04:45:38;101043.06;;;26.85;67.58
42385;BME280;28042;43.986;22.860;2022-07-05T04:48:03;101026.50;;;26.88;67.78
42385;BME280;28042;43.986;22.860;2022-07-05T04:50:29;101025.56;;;26.93;66.84
42385;BME280;28042;43.986;22.860;2022-07-05T04:52:54;101022.56;;;27.13;66.67
42385;BME280;28042;43.986;22.860;2022-07-05T04:55:19;101024.06;;;27.43;65.74
42385;BME280;28042;43.986;22.860;2022-07-05T04:57:45;101027.41;;;27.64;65.20
42385;BME280;28042;43.986;22.860;2022-07-05T05:00:11;101026.84;;;28.00;63.33
42385;BME280;28042;43.986;22.860;2022-07-05T05:02:38;101017.00;;;28.49;61.88
42385;BME280;28042;43.986;22.860;2022-07-05T05:05:03;101030.97;;;29.09;60.14
42385;BME280;28042;43.986;22.860;2022-07-05T05:07:29;101034.44;;;29.55;57.89
42385;BME280;28042;43.986;22.860;2022-07-05T05:09:55;101030.97;;;30.17;55.80
42385;BME280;28042;43.986;22.860;2022-07-05T05:12:20;101035.16;;;30.59;53.44
42385;BME280;28042;43.986;22.860;2022-07-05T05:14:45;101038.94;;;30.86;52.37
42385;BME280;28042;43.986;22.860;2022-07-05T05:17:11;101036.78;;;31.57;50.66
42385;BME280;28042;43.986;22.860;2022-07-05T05:19:36;101041.28;;;31.84;49.83
42385;BME280;28042;43.986;22.860;2022-07-05T05:22:02;101041.97;;;31.81;50.12
42385;BME280;28042;43.986;22.860;2022-07-05T05:24:27;101052.69;;;32.05;48.29
42385;BME280;28042;43.986;22.860;2022-07-05T05:26:53;101043.13;;;31.89;48.38
42385;BME280;28042;43.986;22.860;2022-07-05T05:29:18;101048.50;;;32.28;47.32
42385;BME280;28042;43.986;22.860;2022-07-05T05:31:46;101054.34;;;32.79;45.92
42385;BME280;28042;43.986;22.860;2022-07-05T05:34:11;101053.53;;;32.78;45.39
42385;BME280;28042;43.986;22.860;2022-07-05T05:36:37;101052.44;;;32.62;45.71
42385;BME280;28042;43.986;22.860;2022-07-05T05:39:02;101048.84;;;32.82;46.32
42385;BME280;28042;43.986;22.860;2022-07-05T05:41:27;101054.50;;;32.82;45.50
42385;BME280;28042;43.986;22.860;2022-07-05T05:43:53;101048.97;;;32.48;46.30
42385;BME280;28042;43.986;22.860;2022-07-05T05:46:18;101044.41;;;33.11;45.33
42385;BME280;28042;43.986;22.860;2022-07-05T05:48:43;101051.81;;;32.95;45.28
42385;BME280;28042;43.986;22.860;2022-07-05T05:51:09;101052.25;;;32.67;46.42
42385;BME280;28042;43.986;22.860;2022-07-05T05:53:34;101052.00;;;32.81;45.84
42385;BME280;28042;43.986;22.860;2022-07-05T05:55:59;101059.88;;;33.34;44.70
42385;BME280;28042;43.986;22.860;2022-07-05T05:58:25;101060.78;;;33.97;43.16
42385;BME280;28042;43.986;22.860;2022-07-05T06:00:50;101058.72;;;34.19;42.42
42385;BME280;28042;43.986;22.860;2022-07-05T06:03:19;101061.94;;;33.25;44.36
42385;BME280;28042;43.986;22.860;2022-07-05T06:05:44;101058.00;;;32.88;46.32
42385;BME280;28042;43.986;22.860;2022-07-05T06:08:10;101058.78;;;33.56;44.62
42385;BME280;28042;43.986;22.860;2022-07-05T06:10:36;101069.41;;;33.38;44.32
42385;BME280;28042;43.986;22.860;2022-07-05T06:13:03;101059.00;;;33.72;44.25
42385;BME280;28042;43.986;22.860;2022-07-05T06:15:29;101050.91;;;33.83;43.35
42385;BME280;28042;43.986;22.860;2022-07-05T06:17:54;101060.50;;;33.49;44.24
42385;BME280;28042;43.986;22.860;2022-07-05T06:20:20;101059.94;;;33.26;45.08
42385;BME280;28042;43.986;22.860;2022-07-05T06:22:46;101058.63;;;33.23;45.07
42385;BME280;28042;43.986;22.860;2022-07-05T06:25:12;101056.00;;;34.22;42.82
42385;BME280;28042;43.986;22.860;2022-07-05T06:27:38;101052.00;;;34.44;42.38
42385;BME280;28042;43.986;22.860;2022-07-05T06:30:04;101056.84;;;34.44;41.72
42385;BME280;28042;43.986;22.860;2022-07-05T06:32:29;101058.16;;;34.59;41.79
42385;BME280;28042;43.986;22.860;2022-07-05T06:34:55;101059.19;;;34.42;42.11
42385;BME280;28042;43.986;22.860;2022-07-05T06:37:20;101068.59;;;34.00;42.58
42385;BME280;28042;43.986;22.860;2022-07-05T06:39:46;101059.19;;;34.42;42.43
42385;BME280;28042;43.986;22.860;2022-07-05T06:42:11;101065.31;;;34.11;42.91
42385;BME280;28042;43.986;22.860;2022-07-05T06:44:36;101073.00;;;34.43;43.61
42385;BME280;28042;43.986;22.860;2022-07-05T06:47:02;101061.47;;;33.94;45.43
42385;BME280;28042;43.986;22.860;2022-07-05T06:49:27;101067.47;;;33.22;46.67
42385;BME280;28042;43.986;22.860;2022-07-05T06:51:52;101066.91;;;32.99;47.51
42385;BME280;28042;43.986;22.860;2022-07-05T06:54:18;101070.38;;;32.57;48.85
42385;BME280;28042;43.986;22.860;2022-07-05T06:56:43;101065.97;;;32.13;49.09
42385;BME280;28042;43.986;22.860;2022-07-05T06:59:08;101056.53;;;32.09;50.66
42385;BME280;28042;43.986;22.860;2022-07-05T07:01:33;101058.69;;;31.95;51.57
42385;BME280;28042;43.986;22.860;2022-07-05T07:03:59;101054.88;;;31.99;51.56
42385;BME280;28042;43.986;22.860;2022-07-05T07:06:24;101049.25;;;31.82;50.86
42385;BME280;28042;43.986;22.860;2022-07-05T07:08:50;101056.34;;;31.62;52.41
42385;BME280;28042;43.986;22.860;2022-07-05T07:11:34;101053.50;;;31.36;52.79
42385;BME280;28042;43.986;22.860;2022-07-05T07:13:59;101045.94;;;30.97;54.13
42385;BME280;28042;43.986;22.860;2022-07-05T07:16:25;101051.34;;;31.25;52.95
42385;BME280;28042;43.986;22.860;2022-07-05T07:18:50;101039.09;;;31.38;52.48
42385;BME280;28042;43.986;22.860;2022-07-05T07:21:15;101042.06;;;31.50;52.46
42385;BME280;28042;43.986;22.860;2022-07-05T07:23:41;101037.28;;;31.59;51.30
42385;BME280;28042;43.986;22.860;2022-07-05T07:26:06;101038.44;;;31.58;51.23
42385;BME280;28042;43.986;22.860;2022-07-05T07:28:31;101033.63;;;31.59;51.38
42385;BME280;28042;43.986;22.860;2022-07-05T07:30:57;101038.47;;;31.84;51.42
42385;BME280;28042;43.986;22.860;2022-07-05T07:33:22;101036.78;;;31.74;49.53
42385;BME280;28042;43.986;22.860;2022-07-05T07:35:47;101035.50;;;31.81;50.07
42385;BME280;28042;43.986;22.860;2022-07-05T07:38:13;101031.47;;;31.64;50.72
42385;BME280;28042;43.986;22.860;2022-07-05T07:40:38;101031.13;;;31.74;49.55
42385;BME280;28042;43.986;22.860;2022-07-05T07:43:03;101025.16;;;31.67;50.16
42385;BME280;28042;43.986;22.860;2022-07-05T07:45:28;101019.84;;;31.66;49.07
42385;BME280;28042;43.986;22.860;2022-07-05T07:47:55;101024.00;;;31.60;49.10
42385;BME280;28042;43.986;22.860;2022-07-05T07:50:21;101025.97;;;31.68;49.61
42385;BME280;28042;43.986;22.860;2022-07-05T07:52:46;101020.53;;;31.37;49.16
42385;BME280;28042;43.986;22.860;2022-07-05T07:55:11;101017.44;;;30.59;50.75
42385;BME280;28042;43.986;22.860;2022-07-05T07:57:37;101016.69;;;30.76;50.69
42385;BME280;28042;43.986;22.860;2022-07-05T08:00:03;101017.75;;;30.97;50.68
42385;BME280;28042;43.986;22.860;2022-07-05T08:02:28;101018.75;;;31.01;49.64
42385;BME280;28042;43.986;22.860;2022-07-05T08:04:54;101020.13;;;31.12;49.61
42385;BME280;28042;43.986;22.860;2022-07-05T08:07:19;101017.84;;;31.49;49.60
42385;BME280;28042;43.986;22.860;2022-07-05T08:09:45;101014.22;;;31.92;50.13
42385;BME280;28042;43.986;22.860;2022-07-05T08:12:10;101018.22;;;31.91;48.93
42385;BME280;28042;43.986;22.860;2022-07-05T08:14:35;101020.66;;;32.10;48.10
42385;BME280;28042;43.986;22.860;2022-07-05T08:17:01;101009.50;;;32.30;47.72
42385;BME280;28042;43.986;22.860;2022-07-05T08:19:26;101018.25;;;32.46;46.08
42385;BME280;28042;43.986;22.860;2022-07-05T08:22:10;101021.34;;;32.62;45.50
42385;BME280;28042;43.986;22.860;2022-07-05T08:24:36;101027.00;;;32.62;45.56
42385;BME280;28042;43.986;22.860;2022-07-05T08:27:01;101014.03;;;32.61;45.38
42385;BME280;28042;43.986;22.860;2022-07-05T08:29:27;101006.44;;;32.82;45.59
42385;BME280;28042;43.986;22.860;2022-07-05T08:31:52;101009.78;;;32.93;44.98
42385;BME280;28042;43.986;22.860;2022-07-05T08:34:17;101007.25;;;32.92;44.16
42385;BME280;28042;43.986;22.860;2022-07-05T08:36:43;101009.97;;;32.79;45.16
42385;BME280;28042;43.986;22.860;2022-07-05T08:39:09;100995.72;;;33.05;44.62
42385;BME280;28042;43.986;22.860;2022-07-05T08:41:39;101003.94;;;32.89;43.57
42385;BME280;28042;43.986;22.860;2022-07-05T08:44:05;101002.72;;;32.99;43.64
42385;BME280;28042;43.986;22.860;2022-07-05T08:46:31;100998.78;;;32.83;43.45
42385;BME280;28042;43.986;22.860;2022-07-05T08:48:58;100992.19;;;32.79;43.35
42385;BME280;28042;43.986;22.860;2022-07-05T08:51:24;100982.41;;;32.76;43.20
42385;BME280;28042;43.986;22.860;2022-07-05T08:53:51;100979.00;;;32.92;43.35
42385;BME280;28042;43.986;22.860;2022-07-05T08:56:17;100982.47;;;33.18;42.83
42385;BME280;28042;43.986;22.860;2022-07-05T08:58:43;100973.66;;;33.20;42.95
42385;BME280;28042;43.986;22.860;2022-07-05T09:01:09;100966.63;;;33.26;42.46
42385;BME280;28042;43.986;22.860;2022-07-05T09:03:38;100971.84;;;33.36;41.60
42385;BME280;28042;43.986;22.860;2022-07-05T09:06:06;100967.31;;;33.02;42.76
42385;BME280;28042;43.986;22.860;2022-07-05T09:08:37;100966.06;;;33.32;43.81
42385;BME280;28042;43.986;22.860;2022-07-05T09:11:12;100967.88;;;33.58;42.86
42385;BME280;28042;43.986;22.860;2022-07-05T09:13:39;100962.75;;;33.72;42.96
42385;BME280;28042;43.986;22.860;2022-07-05T09:16:05;100964.06;;;33.74;43.25
42385;BME280;28042;43.986;22.860;2022-07-05T09:18:41;100965.19;;;33.94;43.44
42385;BME280;28042;43.986;22.860;2022-07-05T09:21:11;100961.44;;;34.03;41.95
42385;BME280;28042;43.986;22.860;2022-07-05T09:23:36;100967.34;;;33.97;42.33
42385;BME280;28042;43.986;22.860;2022-07-05T09:26:01;100954.84;;;33.98;42.95
42385;BME280;28042;43.986;22.860;2022-07-05T09:28:27;100957.19;;;33.96;43.42
42385;BME280;28042;43.986;22.860;2022-07-05T09:30:52;100948.69;;;33.63;43.29
42385;BME280;28042;43.986;22.860;2022-07-05T09:33:18;100953.16;;;33.23;43.97
42385;BME280;28042;43.986;22.860;2022-07-05T09:35:50;100939.38;;;33.63;43.61
42385;BME280;28042;43.986;22.860;2022-07-05T09:38:17;100940.34;;;33.79;42.92
42385;BME280;28042;43.986;22.860;2022-07-05T09:40:46;100943.06;;;34.09;42.43
42385;BME280;28042;43.986;22.860;2022-07-05T09:43:14;100939.72;;;34.52;40.74
42385;BME280;28042;43.986;22.860;2022-07-05T09:45:39;100933.81;;;34.69;40.34
42385;BME280;28042;43.986;22.860;2022-07-05T09:48:08;100928.13;;;34.69;39.63
42385;BME280;28042;43.986;22.860;2022-07-05T09:50:34;100930.84;;;34.90;39.84
42385;BME280;28042;43.986;22.860;2022-07-05T09:52:59;100926.34;;;34.89;40.20
42385;BME280;28042;43.986;22.860;2022-07-05T09:55:24;100927.50;;;35.00;40.70
42385;BME280;28042;43.986;22.860;2022-07-05T09:57:50;100934.34;;;35.11;39.04
42385;BME280;28042;43.986;22.860;2022-07-05T10:00:22;100918.38;;;35.19;39.97
42385;BME280;28042;43.986;22.860;2022-07-05T10:02:49;100926.22;;;35.38;38.43
42385;BME280;28042;43.986;22.860;2022-07-05T10:05:22;100924.09;;;35.47;38.74
42385;BME280;28042;43.986;22.860;2022-07-05T10:07:48;100919.78;;;35.53;38.26
42385;BME280;28042;43.986;22.860;2022-07-05T10:10:14;100918.19;;;35.68;37.09
42385;BME280;28042;43.986;22.860;2022-07-05T10:12:41;100917.72;;;35.66;38.33
42385;BME280;28042;43.986;22.860;2022-07-05T10:15:07;100910.56;;;35.56;38.72
42385;BME280;28042;43.986;22.860;2022-07-05T10:17:35;100908.81;;;35.52;38.94
42385;BME280;28042;43.986;22.860;2022-07-05T10:20:00;100906.78;;;35.52;38.01
42385;BME280;28042;43.986;22.860;2022-07-05T10:22:27;100909.63;;;35.52;38.68
42385;BME280;28042;43.986;22.860;2022-07-05T10:24:52;100907.13;;;35.79;37.53
42385;BME280;28042;43.986;22.860;2022-07-05T10:27:19;100897.13;;;35.97;36.56
42385;BME280;28042;43.986;22.860;2022-07-05T10:29:45;100894.31;;;35.85;36.45
42385;BME280;28042;43.986;22.860;2022-07-05T10:32:10;100896.69;;;35.83;36.37
42385;BME280;28042;43.986;22.860;2022-07-05T10:34:36;100891.06;;;35.71;37.55
42385;BME280;28042;43.986;22.860;2022-07-05T10:37:02;100893.22;;;35.74;36.76
42385;BME280;28042;43.986;22.860;2022-07-05T10:39:28;100882.63;;;35.58;36.11
42385;BME280;28042;43.986;22.860;2022-07-05T10:41:54;100887.91;;;35.88;36.00
42385;BME280;28042;43.986;22.860;2022-07-05T10:44:26;100884.72;;;36.05;33.82
42385;BME280;28042;43.986;22.860;2022-07-05T10:47:02;100876.56;;;36.19;34.33
42385;BME280;28042;43.986;22.860;2022-07-05T10:49:31;100861.53;;;36.35;33.87
42385;BME280;28042;43.986;22.860;2022-07-05T10:51:56;100870.13;;;36.54;33.70
42385;BME280;28042;43.986;22.860;2022-07-05T10:54:22;100867.88;;;36.44;34.74
42385;BME280;28042;43.986;22.860;2022-07-05T10:59:41;100851.63;;;36.79;33.31
42385;BME280;28042;43.986;22.860;2022-07-05T11:02:16;100857.50;;;36.87;33.19
42385;BME280;28042;43.986;22.860;2022-07-05T11:04:41;100853.47;;;37.07;33.20
42385;BME280;28042;43.986;22.860;2022-07-05T11:07:07;100845.41;;;37.28;33.34
42385;BME280;28042;43.986;22.860;2022-07-05T11:09:33;100841.97;;;37.39;32.65
42385;BME280;28042;43.986;22.860;2022-07-05T11:22:20;100837.31;;;37.30;30.60
42385;BME280;28042;43.986;22.860;2022-07-05T11:24:46;100823.72;;;37.43;31.41
42385;BME280;28042;43.986;22.860;2022-07-05T11:27:12;100820.47;;;37.64;31.09
42385;BME280;28042;43.986;22.860;2022-07-05T11:29:47;100825.53;;;37.74;30.01
42385;BME280;28042;43.986;22.860;2022-07-05T11:32:14;100815.78;;;37.75;28.98
42385;BME280;28042;43.986;22.860;2022-07-05T11:34:41;100820.13;;;37.88;29.71
42385;BME280;28042;43.986;22.860;2022-07-05T11:39:44;100810.47;;;37.51;28.73
42385;BME280;28042;43.986;22.860;2022-07-05T11:42:10;100810.88;;;37.72;29.07
42385;BME280;28042;43.986;22.860;2022-07-05T11:44:36;100803.78;;;37.85;28.29
42385;BME280;28042;43.986;22.860;2022-07-05T11:47:02;100793.47;;;37.77;28.23
42385;BME280;28042;43.986;22.860;2022-07-05T11:49:28;100788.59;;;37.55;29.44
42385;BME280;28042;43.986;22.860;2022-07-05T11:51:54;100797.97;;;37.78;29.88
42385;BME280;28042;43.986;22.860;2022-07-05T11:54:26;100785.94;;;37.88;28.60
42385;BME280;28042;43.986;22.860;2022-07-05T11:56:52;100785.34;;;37.56;28.90
42385;BME280;28042;43.986;22.860;2022-07-05T11:59:18;100780.16;;;37.39;30.16
42385;BME280;28042;43.986;22.860;2022-07-05T12:01:44;100778.63;;;37.68;31.08
42385;BME280;28042;43.986;22.860;2022-07-05T12:04:09;100772.13;;;37.90;30.10
42385;BME280;28042;43.986;22.860;2022-07-05T12:06:41;100776.41;;;38.04;28.80
42385;BME280;28042;43.986;22.860;2022-07-05T12:09:07;100771.75;;;37.27;29.56
42385;BME280;28042;43.986;22.860;2022-07-05T12:11:32;100768.56;;;37.28;29.58
42385;BME280;28042;43.986;22.860;2022-07-05T12:14:19;100764.22;;;37.57;29.64
42385;BME280;28042;43.986;22.860;2022-07-05T12:16:45;100757.31;;;37.58;29.63
42385;BME280;28042;43.986;22.860;2022-07-05T12:19:11;100756.13;;;37.82;29.25
42385;BME280;28042;43.986;22.860;2022-07-05T12:21:36;100761.59;;;37.95;28.69
42385;BME280;28042;43.986;22.860;2022-07-05T12:24:01;100757.91;;;38.17;29.48
42385;BME280;28042;43.986;22.860;2022-07-05T12:26:27;100759.69;;;38.25;29.04
42385;BME280;28042;43.986;22.860;2022-07-05T12:28:53;100749.63;;;38.08;28.21
42385;BME280;28042;43.986;22.860;2022-07-05T12:31:19;100753.44;;;37.93;27.56
42385;BME280;28042;43.986;22.860;2022-07-05T12:33:45;100753.97;;;38.25;27.97
42385;BME280;28042;43.986;22.860;2022-07-05T12:36:11;100745.25;;;38.41;27.45
42385;BME280;28042;43.986;22.860;2022-07-05T12:38:37;100753.16;;;38.25;27.35
42385;BME280;28042;43.986;22.860;2022-07-05T12:41:02;100754.63;;;38.15;27.70
42385;BME280;28042;43.986;22.860;2022-07-05T12:43:27;100752.53;;;38.38;26.97
42385;BME280;28042;43.986;22.860;2022-07-05T12:46:02;100741.78;;;38.28;27.09
42385;BME280;28042;43.986;22.860;2022-07-05T12:48:32;100737.84;;;37.83;27.05